sensor_id;sensor_type;location;lat;lon;timestamp;P1;durP1;ratioP1;P2;durP2;ratioP2
76405;SDS011;65234;50.044;19.258;2022-12-29T00:00:13;48.03;;;42.90;;
76405;SDS011;65234;50.044;19.258;2022-12-29T00:02:59;43.15;;;39.38;;
76405;SDS011;65234;50.044;19.258;2022-12-29T00:05:25;41.13;;;37.63;;
76405;SDS011;65234;50.044;19.258;2022-12-29T00:07:52;43.15;;;38.72;;
76405;SDS011;65234;50.044;19.258;2022-12-29T00:10:17;45.95;;;41.95;;
76405;SDS011;65234;50.044;19.258;2022-12-29T00:12:43;52.90;;;46.95;;
76405;SDS011;65234;50.044;19.258;2022-12-29T00:15:09;57.70;;;46.90;;
76405;SDS011;65234;50.044;19.258;2022-12-29T00:17:35;61.63;;;47.80;;
76405;SDS011;65234;50.044;19.258;2022-12-29T00:20:00;68.38;;;51.85;;
76405;SDS011;65234;50.044;19.258;2022-12-29T00:22:26;58.53;;;50.67;;
76405;SDS011;65234;50.044;19.258;2022-12-29T00:24:53;53.85;;;48.70;;
76405;SDS011;65234;50.044;19.258;2022-12-29T00:27:19;55.70;;;49.13;;
76405;SDS011;65234;50.044;19.258;2022-12-29T00:29:45;49.63;;;43.47;;
76405;SDS011;65234;50.044;19.258;2022-12-29T00:32:11;58.65;;;46.00;;
76405;SDS011;65234;50.044;19.258;2022-12-29T00:34:36;51.10;;;44.38;;
76405;SDS011;65234;50.044;19.258;2022-12-29T00:37:02;56.38;;;48.70;;
76405;SDS011;65234;50.044;19.258;2022-12-29T00:39:28;47.30;;;42.88;;
76405;SDS011;65234;50.044;19.258;2022-12-29T00:41:55;56.28;;;41.60;;
76405;SDS011;65234;50.044;19.258;2022-12-29T00:44:21;48.85;;;43.63;;
76405;SDS011;65234;50.044;19.258;2022-12-29T00:46:46;44.42;;;40.40;;
76405;SDS011;65234;50.044;19.258;2022-12-29T00:49:12;44.50;;;40.45;;
76405;SDS011;65234;50.044;19.258;2022-12-29T00:51:39;45.72;;;41.67;;
76405;SDS011;65234;50.044;19.258;2022-12-29T00:54:05;46.00;;;39.15;;
76405;SDS011;65234;50.044;19.258;2022-12-29T00:56:31;43.55;;;39.58;;
76405;SDS011;65234;50.044;19.258;2022-12-29T00:59:00;42.67;;;39.30;;
76405;SDS011;65234;50.044;19.258;2022-12-29T01:01:26;42.40;;;39.28;;
76405;SDS011;65234;50.044;19.258;2022-12-29T01:03:52;40.70;;;37.75;;
76405;SDS011;65234;50.044;19.258;2022-12-29T01:06:18;43.50;;;39.85;;
76405;SDS011;65234;50.044;19.258;2022-12-29T01:08:43;41.13;;;37.95;;
76405;SDS011;65234;50.044;19.258;2022-12-29T01:11:10;42.55;;;39.17;;
76405;SDS011;65234;50.044;19.258;2022-12-29T01:13:37;39.30;;;35.95;;
76405;SDS011;65234;50.044;19.258;2022-12-29T01:16:05;41.90;;;38.80;;
76405;SDS011;65234;50.044;19.258;2022-12-29T01:18:31;50.50;;;45.70;;
76405;SDS011;65234;50.044;19.258;2022-12-29T01:21:00;50.53;;;45.53;;
76405;SDS011;65234;50.044;19.258;2022-12-29T01:23:26;52.88;;;47.45;;
76405;SDS011;65234;50.044;19.258;2022-12-29T01:25:53;61.05;;;50.47;;
76405;SDS011;65234;50.044;19.258;2022-12-29T01:28:27;57.15;;;47.97;;
76405;SDS011;65234;50.044;19.258;2022-12-29T01:30:53;49.95;;;44.83;;
76405;SDS011;65234;50.044;19.258;2022-12-29T01:33:20;52.40;;;45.40;;
76405;SDS011;65234;50.044;19.258;2022-12-29T01:35:46;49.92;;;39.38;;
76405;SDS011;65234;50.044;19.258;2022-12-29T01:38:12;45.42;;;41.83;;
76405;SDS011;65234;50.044;19.258;2022-12-29T01:40:43;45.95;;;41.85;;
76405;SDS011;65234;50.044;19.258;2022-12-29T01:43:09;49.63;;;44.63;;
76405;SDS011;65234;50.044;19.258;2022-12-29T01:45:37;52.30;;;46.88;;
76405;SDS011;65234;50.044;19.258;2022-12-29T01:48:03;62.95;;;46.40;;
76405;SDS011;65234;50.044;19.258;2022-12-29T01:50:35;50.08;;;45.47;;
76405;SDS011;65234;50.044;19.258;2022-12-29T01:53:07;45.63;;;41.45;;
76405;SDS011;65234;50.044;19.258;2022-12-29T01:55:37;48.55;;;44.22;;
76405;SDS011;65234;50.044;19.258;2022-12-29T01:58:05;45.30;;;41.20;;
76405;SDS011;65234;50.044;19.258;2022-12-29T02:00:32;44.30;;;41.05;;
76405;SDS011;65234;50.044;19.258;2022-12-29T02:02:57;41.47;;;38.15;;
76405;SDS011;65234;50.044;19.258;2022-12-29T02:05:25;42.00;;;38.67;;
76405;SDS011;65234;50.044;19.258;2022-12-29T02:07:57;44.67;;;39.13;;
76405;SDS011;65234;50.044;19.258;2022-12-29T02:10:23;46.53;;;42.17;;
76405;SDS011;65234;50.044;19.258;2022-12-29T02:12:51;47.55;;;42.58;;
76405;SDS011;65234;50.044;19.258;2022-12-29T02:15:19;41.83;;;38.58;;
76405;SDS011;65234;50.044;19.258;2022-12-29T02:17:55;46.42;;;42.35;;
76405;SDS011;65234;50.044;19.258;2022-12-29T02:23:48;39.83;;;36.33;;
76405;SDS011;65234;50.044;19.258;2022-12-29T02:26:37;39.20;;;36.80;;
76405;SDS011;65234;50.044;19.258;2022-12-29T02:29:34;38.70;;;36.30;;
76405;SDS011;65234;50.044;19.258;2022-12-29T02:32:15;35.53;;;33.30;;
76405;SDS011;65234;50.044;19.258;2022-12-29T02:34:49;40.22;;;36.88;;
76405;SDS011;65234;50.044;19.258;2022-12-29T02:37:22;37.22;;;34.70;;
76405;SDS011;65234;50.044;19.258;2022-12-29T02:39:52;36.83;;;34.40;;
76405;SDS011;65234;50.044;19.258;2022-12-29T02:42:29;39.10;;;36.10;;
76405;SDS011;65234;50.044;19.258;2022-12-29T02:45:02;38.08;;;35.75;;
76405;SDS011;65234;50.044;19.258;2022-12-29T02:47:35;39.65;;;36.38;;
76405;SDS011;65234;50.044;19.258;2022-12-29T02:50:06;39.70;;;37.10;;
76405;SDS011;65234;50.044;19.258;2022-12-29T02:52:39;39.25;;;36.08;;
76405;SDS011;65234;50.044;19.258;2022-12-29T02:55:09;42.78;;;39.55;;
76405;SDS011;65234;50.044;19.258;2022-12-29T02:57:36;40.33;;;36.83;;
76405;SDS011;65234;50.044;19.258;2022-12-29T03:00:03;58.17;;;43.08;;
76405;SDS011;65234;50.044;19.258;2022-12-29T03:05:30;47.85;;;43.85;;
76405;SDS011;65234;50.044;19.258;2022-12-29T03:08:10;52.67;;;44.22;;
76405;SDS011;65234;50.044;19.258;2022-12-29T03:10:48;50.22;;;45.08;;
76405;SDS011;65234;50.044;19.258;2022-12-29T03:13:25;52.22;;;46.92;;
76405;SDS011;65234;50.044;19.258;2022-12-29T03:15:55;50.47;;;45.08;;
76405;SDS011;65234;50.044;19.258;2022-12-29T03:18:32;53.33;;;48.78;;
76405;SDS011;65234;50.044;19.258;2022-12-29T03:21:03;50.15;;;46.08;;
76405;SDS011;65234;50.044;19.258;2022-12-29T03:23:33;52.70;;;47.75;;
76405;SDS011;65234;50.044;19.258;2022-12-29T03:26:01;50.75;;;46.08;;
76405;SDS011;65234;50.044;19.258;2022-12-29T03:28:32;54.22;;;48.60;;
76405;SDS011;65234;50.044;19.258;2022-12-29T03:31:03;48.78;;;44.50;;
76405;SDS011;65234;50.044;19.258;2022-12-29T03:33:33;48.35;;;44.28;;
76405;SDS011;65234;50.044;19.258;2022-12-29T03:36:03;48.15;;;43.38;;
76405;SDS011;65234;50.044;19.258;2022-12-29T03:38:33;45.30;;;40.63;;
76405;SDS011;65234;50.044;19.258;2022-12-29T03:41:04;51.70;;;45.65;;
76405;SDS011;65234;50.044;19.258;2022-12-29T03:43:33;42.17;;;39.17;;
76405;SDS011;65234;50.044;19.258;2022-12-29T03:45:58;41.80;;;38.13;;
76405;SDS011;65234;50.044;19.258;2022-12-29T03:48:24;43.05;;;39.10;;
76405;SDS011;65234;50.044;19.258;2022-12-29T03:50:51;41.55;;;38.20;;
76405;SDS011;65234;50.044;19.258;2022-12-29T03:53:17;47.15;;;38.33;;
76405;SDS011;65234;50.044;19.258;2022-12-29T03:55:42;44.88;;;40.72;;
76405;SDS011;65234;50.044;19.258;2022-12-29T03:58:08;44.78;;;40.53;;
76405;SDS011;65234;50.044;19.258;2022-12-29T04:00:34;43.45;;;39.05;;
76405;SDS011;65234;50.044;19.258;2022-12-29T04:03:00;43.80;;;40.42;;
76405;SDS011;65234;50.044;19.258;2022-12-29T04:05:25;41.65;;;38.30;;
76405;SDS011;65234;50.044;19.258;2022-12-29T04:07:53;50.97;;;39.78;;
76405;SDS011;65234;50.044;19.258;2022-12-29T04:10:18;43.10;;;39.38;;
76405;SDS011;65234;50.044;19.258;2022-12-29T04:12:44;43.90;;;40.25;;
76405;SDS011;65234;50.044;19.258;2022-12-29T04:15:10;46.45;;;42.08;;
76405;SDS011;65234;50.044;19.258;2022-12-29T04:17:36;45.30;;;41.38;;
76405;SDS011;65234;50.044;19.258;2022-12-29T04:20:01;44.45;;;40.42;;
76405;SDS011;65234;50.044;19.258;2022-12-29T04:22:27;45.60;;;41.38;;
76405;SDS011;65234;50.044;19.258;2022-12-29T04:24:54;43.67;;;40.28;;
76405;SDS011;65234;50.044;19.258;2022-12-29T04:27:20;45.67;;;41.80;;
76405;SDS011;65234;50.044;19.258;2022-12-29T04:29:45;49.17;;;44.03;;
76405;SDS011;65234;50.044;19.258;2022-12-29T04:32:11;47.30;;;42.05;;
76405;SDS011;65234;50.044;19.258;2022-12-29T04:34:37;47.35;;;43.13;;
76405;SDS011;65234;50.044;19.258;2022-12-29T04:37:03;45.25;;;41.28;;
76405;SDS011;65234;50.044;19.258;2022-12-29T04:39:28;40.72;;;37.83;;
76405;SDS011;65234;50.044;19.258;2022-12-29T04:41:55;42.47;;;38.42;;
76405;SDS011;65234;50.044;19.258;2022-12-29T04:44:21;43.28;;;39.95;;
76405;SDS011;65234;50.044;19.258;2022-12-29T04:46:47;40.65;;;37.35;;
76405;SDS011;65234;50.044;19.258;2022-12-29T04:49:12;42.63;;;38.47;;
76405;SDS011;65234;50.044;19.258;2022-12-29T04:51:38;37.97;;;35.13;;
76405;SDS011;65234;50.044;19.258;2022-12-29T04:54:04;38.38;;;35.67;;
76405;SDS011;65234;50.044;19.258;2022-12-29T04:56:30;39.70;;;36.35;;
76405;SDS011;65234;50.044;19.258;2022-12-29T04:58:57;50.45;;;38.95;;
76405;SDS011;65234;50.044;19.258;2022-12-29T05:01:22;49.10;;;44.15;;
76405;SDS011;65234;50.044;19.258;2022-12-29T05:03:49;46.53;;;42.78;;
76405;SDS011;65234;50.044;19.258;2022-12-29T05:06:15;47.08;;;42.22;;
76405;SDS011;65234;50.044;19.258;2022-12-29T05:08:40;38.22;;;35.22;;
76405;SDS011;65234;50.044;19.258;2022-12-29T05:11:06;40.88;;;36.60;;
76405;SDS011;65234;50.044;19.258;2022-12-29T05:13:32;41.58;;;37.95;;
76405;SDS011;65234;50.044;19.258;2022-12-29T05:15:59;45.75;;;41.15;;
76405;SDS011;65234;50.044;19.258;2022-12-29T05:18:24;42.90;;;37.90;;
76405;SDS011;65234;50.044;19.258;2022-12-29T05:20:50;36.08;;;33.58;;
76405;SDS011;65234;50.044;19.258;2022-12-29T05:23:16;37.60;;;34.60;;
76405;SDS011;65234;50.044;19.258;2022-12-29T05:25:42;39.55;;;36.05;;
76405;SDS011;65234;50.044;19.258;2022-12-29T05:28:08;39.78;;;36.85;;
76405;SDS011;65234;50.044;19.258;2022-12-29T05:30:34;40.08;;;36.83;;
76405;SDS011;65234;50.044;19.258;2022-12-29T05:33:01;47.42;;;43.70;;
76405;SDS011;65234;50.044;19.258;2022-12-29T05:35:27;53.10;;;47.67;;
76405;SDS011;65234;50.044;19.258;2022-12-29T05:37:52;46.35;;;42.65;;
76405;SDS011;65234;50.044;19.258;2022-12-29T05:40:18;45.65;;;41.83;;
76405;SDS011;65234;50.044;19.258;2022-12-29T05:42:44;46.03;;;41.22;;
76405;SDS011;65234;50.044;19.258;2022-12-29T05:45:10;42.38;;;38.33;;
76405;SDS011;65234;50.044;19.258;2022-12-29T05:47:35;47.72;;;43.17;;
76405;SDS011;65234;50.044;19.258;2022-12-29T05:50:03;46.15;;;41.67;;
76405;SDS011;65234;50.044;19.258;2022-12-29T05:52:29;46.33;;;41.75;;
76405;SDS011;65234;50.044;19.258;2022-12-29T05:54:54;48.53;;;43.57;;
76405;SDS011;65234;50.044;19.258;2022-12-29T05:57:20;54.17;;;48.90;;
76405;SDS011;65234;50.044;19.258;2022-12-29T05:59:46;54.60;;;48.45;;
76405;SDS011;65234;50.044;19.258;2022-12-29T06:02:11;50.35;;;45.38;;
76405;SDS011;65234;50.044;19.258;2022-12-29T06:04:37;49.42;;;45.35;;
76405;SDS011;65234;50.044;19.258;2022-12-29T06:07:04;45.17;;;41.13;;
76405;SDS011;65234;50.044;19.258;2022-12-29T06:09:30;43.13;;;39.27;;
76405;SDS011;65234;50.044;19.258;2022-12-29T06:11:55;43.87;;;39.33;;
76405;SDS011;65234;50.044;19.258;2022-12-29T06:14:21;41.20;;;37.85;;
76405;SDS011;65234;50.044;19.258;2022-12-29T06:16:47;45.22;;;41.05;;
76405;SDS011;65234;50.044;19.258;2022-12-29T06:19:13;41.38;;;38.60;;
76405;SDS011;65234;50.044;19.258;2022-12-29T06:21:38;40.53;;;37.20;;
76405;SDS011;65234;50.044;19.258;2022-12-29T06:24:06;38.43;;;35.53;;
76405;SDS011;65234;50.044;19.258;2022-12-29T06:26:31;39.23;;;36.00;;
76405;SDS011;65234;50.044;19.258;2022-12-29T06:28:57;36.70;;;34.27;;
76405;SDS011;65234;50.044;19.258;2022-12-29T06:31:23;39.80;;;36.70;;
76405;SDS011;65234;50.044;19.258;2022-12-29T06:33:49;39.20;;;36.30;;
76405;SDS011;65234;50.044;19.258;2022-12-29T06:36:14;43.00;;;39.17;;
76405;SDS011;65234;50.044;19.258;2022-12-29T06:38:40;39.45;;;36.40;;
76405;SDS011;65234;50.044;19.258;2022-12-29T06:41:07;41.58;;;38.28;;
76405;SDS011;65234;50.044;19.258;2022-12-29T06:43:33;42.60;;;38.93;;
76405;SDS011;65234;50.044;19.258;2022-12-29T06:45:59;40.37;;;37.17;;
76405;SDS011;65234;50.044;19.258;2022-12-29T06:48:24;42.47;;;38.97;;
76405;SDS011;65234;50.044;19.258;2022-12-29T06:50:50;38.47;;;35.22;;
76405;SDS011;65234;50.044;19.258;2022-12-29T06:53:16;42.65;;;39.00;;
76405;SDS011;65234;50.044;19.258;2022-12-29T06:55:41;39.85;;;36.70;;
76405;SDS011;65234;50.044;19.258;2022-12-29T06:58:09;39.72;;;36.70;;
76405;SDS011;65234;50.044;19.258;2022-12-29T07:00:35;42.25;;;38.85;;
76405;SDS011;65234;50.044;19.258;2022-12-29T07:03:00;40.57;;;36.90;;
76405;SDS011;65234;50.044;19.258;2022-12-29T07:05:26;40.75;;;37.42;;
76405;SDS011;65234;50.044;19.258;2022-12-29T07:07:52;42.90;;;39.92;;
76405;SDS011;65234;50.044;19.258;2022-12-29T07:10:18;39.85;;;37.03;;
76405;SDS011;65234;50.044;19.258;2022-12-29T07:12:44;41.95;;;38.60;;
76405;SDS011;65234;50.044;19.258;2022-12-29T07:15:11;42.95;;;39.47;;
76405;SDS011;65234;50.044;19.258;2022-12-29T07:17:37;41.22;;;37.90;;
76405;SDS011;65234;50.044;19.258;2022-12-29T07:20:03;39.25;;;35.72;;
76405;SDS011;65234;50.044;19.258;2022-12-29T07:22:30;38.78;;;36.28;;
76405;SDS011;65234;50.044;19.258;2022-12-29T07:24:56;38.47;;;35.47;;
76405;SDS011;65234;50.044;19.258;2022-12-29T07:27:22;45.35;;;40.70;;
76405;SDS011;65234;50.044;19.258;2022-12-29T07:29:47;44.05;;;36.90;;
76405;SDS011;65234;50.044;19.258;2022-12-29T07:32:15;44.05;;;40.08;;
76405;SDS011;65234;50.044;19.258;2022-12-29T07:34:40;43.67;;;39.60;;
76405;SDS011;65234;50.044;19.258;2022-12-29T07:37:06;38.88;;;36.10;;
76405;SDS011;65234;50.044;19.258;2022-12-29T07:39:32;38.35;;;35.47;;
76405;SDS011;65234;50.044;19.258;2022-12-29T07:41:57;40.10;;;36.65;;
76405;SDS011;65234;50.044;19.258;2022-12-29T07:44:23;39.38;;;36.88;;
76405;SDS011;65234;50.044;19.258;2022-12-29T07:46:49;41.38;;;37.88;;
76405;SDS011;65234;50.044;19.258;2022-12-29T07:49:16;40.05;;;37.28;;
76405;SDS011;65234;50.044;19.258;2022-12-29T07:51:42;40.70;;;37.42;;
76405;SDS011;65234;50.044;19.258;2022-12-29T07:54:08;39.28;;;36.45;;
76405;SDS011;65234;50.044;19.258;2022-12-29T07:56:34;41.67;;;38.25;;
76405;SDS011;65234;50.044;19.258;2022-12-29T07:58:59;42.47;;;39.00;;
76405;SDS011;65234;50.044;19.258;2022-12-29T08:01:25;43.53;;;40.33;;
76405;SDS011;65234;50.044;19.258;2022-12-29T08:03:51;45.10;;;41.53;;
76405;SDS011;65234;50.044;19.258;2022-12-29T08:06:18;42.50;;;38.60;;
76405;SDS011;65234;50.044;19.258;2022-12-29T08:08:44;42.13;;;38.90;;
76405;SDS011;65234;50.044;19.258;2022-12-29T08:11:09;51.33;;;42.60;;
76405;SDS011;65234;50.044;19.258;2022-12-29T08:13:35;44.90;;;41.65;;
76405;SDS011;65234;50.044;19.258;2022-12-29T08:16:01;38.65;;;36.08;;
76405;SDS011;65234;50.044;19.258;2022-12-29T08:18:26;40.38;;;37.85;;
76405;SDS011;65234;50.044;19.258;2022-12-29T08:20:52;45.38;;;42.47;;
76405;SDS011;65234;50.044;19.258;2022-12-29T08:23:19;46.53;;;42.97;;
76405;SDS011;65234;50.044;19.258;2022-12-29T08:25:45;44.47;;;41.20;;
76405;SDS011;65234;50.044;19.258;2022-12-29T08:28:10;42.90;;;39.72;;
76405;SDS011;65234;50.044;19.258;2022-12-29T08:30:36;44.50;;;41.22;;
76405;SDS011;65234;50.044;19.258;2022-12-29T08:33:02;43.47;;;40.92;;
76405;SDS011;65234;50.044;19.258;2022-12-29T08:35:28;45.60;;;42.45;;
76405;SDS011;65234;50.044;19.258;2022-12-29T08:37:53;44.25;;;41.20;;
76405;SDS011;65234;50.044;19.258;2022-12-29T08:40:21;43.08;;;39.95;;
76405;SDS011;65234;50.044;19.258;2022-12-29T08:42:46;43.72;;;40.42;;
76405;SDS011;65234;50.044;19.258;2022-12-29T08:45:12;43.55;;;40.65;;
76405;SDS011;65234;50.044;19.258;2022-12-29T08:47:39;44.05;;;40.88;;
76405;SDS011;65234;50.044;19.258;2022-12-29T08:50:05;44.60;;;41.67;;
76405;SDS011;65234;50.044;19.258;2022-12-29T08:52:31;46.55;;;43.05;;
76405;SDS011;65234;50.044;19.258;2022-12-29T08:54:57;45.42;;;42.28;;
76405;SDS011;65234;50.044;19.258;2022-12-29T08:57:24;43.08;;;40.78;;
76405;SDS011;65234;50.044;19.258;2022-12-29T08:59:50;47.70;;;44.38;;
76405;SDS011;65234;50.044;19.258;2022-12-29T09:02:15;45.72;;;43.10;;
76405;SDS011;65234;50.044;19.258;2022-12-29T09:04:41;46.20;;;43.17;;
76405;SDS011;65234;50.044;19.258;2022-12-29T09:07:07;44.92;;;42.15;;
76405;SDS011;65234;50.044;19.258;2022-12-29T09:09:33;46.83;;;44.03;;
76405;SDS011;65234;50.044;19.258;2022-12-29T09:11:58;49.30;;;46.30;;
76405;SDS011;65234;50.044;19.258;2022-12-29T09:14:26;47.17;;;44.20;;
76405;SDS011;65234;50.044;19.258;2022-12-29T09:16:51;49.85;;;47.00;;
76405;SDS011;65234;50.044;19.258;2022-12-29T09:19:17;51.60;;;48.78;;
76405;SDS011;65234;50.044;19.258;2022-12-29T09:21:43;63.60;;;58.35;;
76405;SDS011;65234;50.044;19.258;2022-12-29T09:24:09;67.70;;;62.03;;
76405;SDS011;65234;50.044;19.258;2022-12-29T09:26:34;66.38;;;61.00;;
76405;SDS011;65234;50.044;19.258;2022-12-29T09:29:00;63.03;;;57.17;;
76405;SDS011;65234;50.044;19.258;2022-12-29T09:31:27;62.38;;;58.47;;
76405;SDS011;65234;50.044;19.258;2022-12-29T09:33:53;60.40;;;55.85;;
76405;SDS011;65234;50.044;19.258;2022-12-29T09:36:18;57.65;;;53.72;;
76405;SDS011;65234;50.044;19.258;2022-12-29T09:38:44;62.78;;;57.92;;
76405;SDS011;65234;50.044;19.258;2022-12-29T09:41:12;62.05;;;57.78;;
76405;SDS011;65234;50.044;19.258;2022-12-29T09:43:56;61.47;;;57.58;;
76405;SDS011;65234;50.044;19.258;2022-12-29T09:46:31;61.22;;;57.40;;
76405;SDS011;65234;50.044;19.258;2022-12-29T09:49:03;60.05;;;56.33;;
76405;SDS011;65234;50.044;19.258;2022-12-29T09:51:36;62.65;;;59.08;;
76405;SDS011;65234;50.044;19.258;2022-12-29T09:54:04;63.58;;;60.03;;
76405;SDS011;65234;50.044;19.258;2022-12-29T09:56:46;62.83;;;59.35;;
76405;SDS011;65234;50.044;19.258;2022-12-29T09:59:14;66.20;;;62.22;;
76405;SDS011;65234;50.044;19.258;2022-12-29T10:01:46;84.28;;;76.50;;
76405;SDS011;65234;50.044;19.258;2022-12-29T10:04:16;90.20;;;82.43;;
76405;SDS011;65234;50.044;19.258;2022-12-29T10:06:44;84.75;;;78.60;;
76405;SDS011;65234;50.044;19.258;2022-12-29T10:09:17;83.80;;;77.50;;
76405;SDS011;65234;50.044;19.258;2022-12-29T10:11:57;81.40;;;76.18;;
76405;SDS011;65234;50.044;19.258;2022-12-29T10:14:44;76.32;;;71.10;;
76405;SDS011;65234;50.044;19.258;2022-12-29T10:17:25;75.13;;;70.82;;
76405;SDS011;65234;50.044;19.258;2022-12-29T10:20:17;81.07;;;76.53;;
76405;SDS011;65234;50.044;19.258;2022-12-29T10:22:54;77.68;;;73.60;;
76405;SDS011;65234;50.044;19.258;2022-12-29T10:25:31;84.18;;;78.95;;
76405;SDS011;65234;50.044;19.258;2022-12-29T10:28:01;81.90;;;77.32;;
76405;SDS011;65234;50.044;19.258;2022-12-29T10:30:31;84.13;;;79.25;;
76405;SDS011;65234;50.044;19.258;2022-12-29T10:33:00;86.30;;;81.07;;
76405;SDS011;65234;50.044;19.258;2022-12-29T10:35:31;93.10;;;87.53;;
76405;SDS011;65234;50.044;19.258;2022-12-29T10:38:01;87.32;;;82.25;;
76405;SDS011;65234;50.044;19.258;2022-12-29T10:40:36;89.60;;;84.60;;
76405;SDS011;65234;50.044;19.258;2022-12-29T10:43:07;91.97;;;86.88;;
76405;SDS011;65234;50.044;19.258;2022-12-29T10:45:47;88.82;;;83.32;;
76405;SDS011;65234;50.044;19.258;2022-12-29T10:48:16;91.28;;;85.65;;
76405;SDS011;65234;50.044;19.258;2022-12-29T10:50:47;89.28;;;84.38;;
76405;SDS011;65234;50.044;19.258;2022-12-29T10:53:15;92.82;;;87.55;;
76405;SDS011;65234;50.044;19.258;2022-12-29T10:55:44;87.95;;;83.05;;
76405;SDS011;65234;50.044;19.258;2022-12-29T10:58:12;93.75;;;88.97;;
76405;SDS011;65234;50.044;19.258;2022-12-29T11:00:39;95.88;;;90.78;;
76405;SDS011;65234;50.044;19.258;2022-12-29T11:03:13;91.85;;;87.32;;
76405;SDS011;65234;50.044;19.258;2022-12-29T11:06:07;91.82;;;86.43;;
76405;SDS011;65234;50.044;19.258;2022-12-29T11:08:36;93.25;;;88.18;;
76405;SDS011;65234;50.044;19.258;2022-12-29T11:11:04;95.47;;;90.72;;
76405;SDS011;65234;50.044;19.258;2022-12-29T11:13:33;99.88;;;94.70;;
76405;SDS011;65234;50.044;19.258;2022-12-29T11:15:59;99.30;;;93.88;;
76405;SDS011;65234;50.044;19.258;2022-12-29T11:18:26;104.05;;;98.63;;
76405;SDS011;65234;50.044;19.258;2022-12-29T11:20:58;102.43;;;96.45;;
76405;SDS011;65234;50.044;19.258;2022-12-29T11:23:29;104.72;;;99.53;;
76405;SDS011;65234;50.044;19.258;2022-12-29T11:26:07;102.00;;;96.93;;
76405;SDS011;65234;50.044;19.258;2022-12-29T11:28:39;101.57;;;96.28;;
76405;SDS011;65234;50.044;19.258;2022-12-29T11:31:06;104.05;;;99.22;;
76405;SDS011;65234;50.044;19.258;2022-12-29T11:33:34;99.88;;;94.88;;
76405;SDS011;65234;50.044;19.258;2022-12-29T11:36:04;100.80;;;95.68;;
76405;SDS011;65234;50.044;19.258;2022-12-29T11:38:33;100.63;;;95.75;;
76405;SDS011;65234;50.044;19.258;2022-12-29T11:41:00;104.72;;;99.45;;
76405;SDS011;65234;50.044;19.258;2022-12-29T11:43:29;101.50;;;95.82;;
76405;SDS011;65234;50.044;19.258;2022-12-29T11:45:57;105.85;;;100.63;;
76405;SDS011;65234;50.044;19.258;2022-12-29T11:48:24;104.97;;;99.90;;
76405;SDS011;65234;50.044;19.258;2022-12-29T11:50:55;108.40;;;103.40;;
76405;SDS011;65234;50.044;19.258;2022-12-29T11:53:24;103.75;;;96.70;;
76405;SDS011;65234;50.044;19.258;2022-12-29T11:55:53;103.47;;;98.28;;
76405;SDS011;65234;50.044;19.258;2022-12-29T11:58:20;98.10;;;93.57;;
76405;SDS011;65234;50.044;19.258;2022-12-29T12:00:45;104.28;;;99.03;;
76405;SDS011;65234;50.044;19.258;2022-12-29T12:03:15;95.95;;;91.28;;
76405;SDS011;65234;50.044;19.258;2022-12-29T12:05:45;105.72;;;100.40;;
76405;SDS011;65234;50.044;19.258;2022-12-29T12:08:16;104.30;;;99.18;;
76405;SDS011;65234;50.044;19.258;2022-12-29T12:10:48;106.35;;;100.82;;
76405;SDS011;65234;50.044;19.258;2022-12-29T12:13:19;97.57;;;92.75;;
76405;SDS011;65234;50.044;19.258;2022-12-29T12:15:50;100.80;;;95.95;;
76405;SDS011;65234;50.044;19.258;2022-12-29T12:18:24;102.28;;;97.03;;
76405;SDS011;65234;50.044;19.258;2022-12-29T12:20:58;97.15;;;91.15;;
76405;SDS011;65234;50.044;19.258;2022-12-29T12:23:38;95.40;;;90.85;;
76405;SDS011;65234;50.044;19.258;2022-12-29T12:26:15;91.70;;;87.05;;
76405;SDS011;65234;50.044;19.258;2022-12-29T12:28:48;99.18;;;93.75;;
76405;SDS011;65234;50.044;19.258;2022-12-29T12:33:58;92.00;;;87.53;;
76405;SDS011;65234;50.044;19.258;2022-12-29T12:39:23;88.40;;;84.10;;
76405;SDS011;65234;50.044;19.258;2022-12-29T12:41:54;93.60;;;88.88;;
76405;SDS011;65234;50.044;19.258;2022-12-29T12:44:33;92.80;;;88.25;;
76405;SDS011;65234;50.044;19.258;2022-12-29T12:47:13;94.85;;;90.15;;
76405;SDS011;65234;50.044;19.258;2022-12-29T12:49:58;90.07;;;85.78;;
76405;SDS011;65234;50.044;19.258;2022-12-29T12:52:35;91.03;;;86.57;;
76405;SDS011;65234;50.044;19.258;2022-12-29T12:55:15;99.05;;;93.93;;
76405;SDS011;65234;50.044;19.258;2022-12-29T12:57:54;94.07;;;89.20;;
76405;SDS011;65234;50.044;19.258;2022-12-29T13:00:27;95.32;;;90.82;;
76405;SDS011;65234;50.044;19.258;2022-12-29T13:03:03;93.65;;;89.35;;
76405;SDS011;65234;50.044;19.258;2022-12-29T13:05:38;94.72;;;90.00;;
76405;SDS011;65234;50.044;19.258;2022-12-29T13:11:07;94.20;;;89.70;;
76405;SDS011;65234;50.044;19.258;2022-12-29T13:13:51;94.18;;;89.60;;
76405;SDS011;65234;50.044;19.258;2022-12-29T13:16:40;92.65;;;88.03;;
76405;SDS011;65234;50.044;19.258;2022-12-29T13:19:14;91.30;;;86.60;;
76405;SDS011;65234;50.044;19.258;2022-12-29T13:21:51;92.00;;;87.53;;
76405;SDS011;65234;50.044;19.258;2022-12-29T13:24:27;93.43;;;89.00;;
76405;SDS011;65234;50.044;19.258;2022-12-29T13:27:03;93.03;;;88.45;;
76405;SDS011;65234;50.044;19.258;2022-12-29T13:32:15;86.50;;;82.00;;
76405;SDS011;65234;50.044;19.258;2022-12-29T13:34:53;86.07;;;81.67;;
76405;SDS011;65234;50.044;19.258;2022-12-29T13:37:30;94.38;;;87.60;;
76405;SDS011;65234;50.044;19.258;2022-12-29T13:39:59;89.85;;;85.32;;
76405;SDS011;65234;50.044;19.258;2022-12-29T13:42:29;93.68;;;88.78;;
76405;SDS011;65234;50.044;19.258;2022-12-29T13:44:57;92.57;;;87.90;;
76405;SDS011;65234;50.044;19.258;2022-12-29T13:47:27;94.45;;;89.60;;
76405;SDS011;65234;50.044;19.258;2022-12-29T13:49:56;93.25;;;87.95;;
76405;SDS011;65234;50.044;19.258;2022-12-29T13:52:24;93.05;;;88.35;;
76405;SDS011;65234;50.044;19.258;2022-12-29T13:54:59;86.50;;;82.28;;
76405;SDS011;65234;50.044;19.258;2022-12-29T13:57:35;86.53;;;82.40;;
76405;SDS011;65234;50.044;19.258;2022-12-29T14:00:13;88.35;;;83.50;;
76405;SDS011;65234;50.044;19.258;2022-12-29T14:02:48;90.88;;;86.40;;
76405;SDS011;65234;50.044;19.258;2022-12-29T14:05:30;90.05;;;85.45;;
76405;SDS011;65234;50.044;19.258;2022-12-29T14:07:58;90.00;;;85.70;;
76405;SDS011;65234;50.044;19.258;2022-12-29T14:10:27;86.30;;;81.65;;
76405;SDS011;65234;50.044;19.258;2022-12-29T14:13:00;89.88;;;85.00;;
76405;SDS011;65234;50.044;19.258;2022-12-29T14:15:31;91.77;;;86.57;;
76405;SDS011;65234;50.044;19.258;2022-12-29T14:18:02;92.68;;;88.00;;
76405;SDS011;65234;50.044;19.258;2022-12-29T14:20:30;89.05;;;84.78;;
76405;SDS011;65234;50.044;19.258;2022-12-29T14:22:58;90.07;;;85.53;;
76405;SDS011;65234;50.044;19.258;2022-12-29T14:28:29;87.47;;;82.82;;
76405;SDS011;65234;50.044;19.258;2022-12-29T14:30:57;91.05;;;85.68;;
76405;SDS011;65234;50.044;19.258;2022-12-29T14:33:24;89.38;;;84.60;;
76405;SDS011;65234;50.044;19.258;2022-12-29T14:35:52;89.47;;;84.90;;
76405;SDS011;65234;50.044;19.258;2022-12-29T14:38:25;89.00;;;83.05;;